createdAt,value
2022-08-17T00:01:57.698Z,1.52
2022-08-17T00:04:38.223Z,1.40
2022-08-17T00:07:14.890Z,1.50
2022-08-17T00:09:51.878Z,1.70
2022-08-17T00:12:42.885Z,1.45
2022-08-17T00:15:23.697Z,1.30
2022-08-17T00:18:00.174Z,1.30
2022-08-17T00:20:37.233Z,1.30
2022-08-17T00:23:17.762Z,1.10
2022-08-17T00:25:54.445Z,1.23
2022-08-17T00:28:33.261Z,1.20
2022-08-17T00:31:13.106Z,1.25
2022-08-17T00:33:49.587Z,1.17
2022-08-17T00:36:27.137Z,1.20
2022-08-17T00:39:03.713Z,1.38
2022-08-17T00:41:42.544Z,1.30
2022-08-17T00:44:19.514Z,1.33
2022-08-17T00:46:58.305Z,1.40
2022-08-17T00:49:34.545Z,1.20
2022-08-17T00:52:22.255Z,1.20
2022-08-17T00:55:00.032Z,1.00
2022-08-17T00:57:45.471Z,1.10
2022-08-17T01:00:28.188Z,1.10
2022-08-17T01:03:10.126Z,1.13
2022-08-17T01:05:51.416Z,1.30
2022-08-17T01:08:33.159Z,1.25
2022-08-17T01:11:14.803Z,1.00
2022-08-17T01:13:52.074Z,1.10
2022-08-17T01:16:30.318Z,0.95
2022-08-17T01:19:10.952Z,1.00
2022-08-17T01:21:52.947Z,1.10
2022-08-17T01:24:30.326Z,0.90
2022-08-17T01:27:15.488Z,1.08
2022-08-17T01:29:58.542Z,0.93
2022-08-17T01:32:35.300Z,1.20
2022-08-17T01:35:13.642Z,0.90
2022-08-17T01:37:49.603Z,1.00
2022-08-17T01:40:34.449Z,1.00
2022-08-17T01:43:17.493Z,0.90
2022-08-17T01:46:03.184Z,1.10
2022-08-17T01:48:39.443Z,1.00
2022-08-17T01:51:16.467Z,1.10
2022-08-17T01:53:56.210Z,1.00
2022-08-17T01:56:36.230Z,1.10
2022-08-17T01:59:12.364Z,1.10
2022-08-17T02:01:50.268Z,1.00
2022-08-17T02:04:26.539Z,1.10
2022-08-17T02:07:04.436Z,1.13
2022-08-17T02:09:41.321Z,1.00
2022-08-17T02:12:37.603Z,0.90
2022-08-17T02:15:16.894Z,1.10
2022-08-17T02:17:54.929Z,1.00
2022-08-17T02:20:41.934Z,1.13
2022-08-17T02:23:21.175Z,1.10
2022-08-17T02:25:58.946Z,1.00
2022-08-17T02:28:36.811Z,1.08
2022-08-17T02:31:14.845Z,1.10
2022-08-17T02:34:03.428Z,1.20
2022-08-17T02:36:41.918Z,1.20
2022-08-17T02:39:20.328Z,1.08
2022-08-17T02:42:04.306Z,1.17
2022-08-17T02:44:42.980Z,1.23
2022-08-17T02:47:19.442Z,1.20
2022-08-17T02:49:56.454Z,1.10
2022-08-17T02:52:42.399Z,1.10
2022-08-17T02:55:35.429Z,1.00
2022-08-17T02:58:12.501Z,1.13
2022-08-17T03:00:53.011Z,1.00
2022-08-17T03:03:31.448Z,1.42
2022-08-17T03:06:09.194Z,1.10
2022-08-17T03:08:46.823Z,1.00
2022-08-17T03:11:23.678Z,0.98
2022-08-17T03:14:01.312Z,1.00
2022-08-17T03:16:40.399Z,1.20
2022-08-17T03:19:17.461Z,1.13
2022-08-17T03:21:55.081Z,1.15
2022-08-17T03:24:32.309Z,1.30
2022-08-17T03:27:09.323Z,1.40
2022-08-17T03:29:46.871Z,1.15
2022-08-17T03:32:24.636Z,1.00
2022-08-17T03:35:05.410Z,1.00
2022-08-17T03:37:43.229Z,1.15
2022-08-17T03:40:55.183Z,1.17
2022-08-17T03:43:16.732Z,1.20
2022-08-17T03:46:10.084Z,1.33
2022-08-17T03:49:21.224Z,1.20
2022-08-17T03:52:14.205Z,1.08
2022-08-17T03:55:07.269Z,1.17
2022-08-17T03:57:44.828Z,1.05
2022-08-17T04:00:21.654Z,1.10
2022-08-17T04:02:58.578Z,1.10
2022-08-17T04:05:37.757Z,1.27
2022-08-17T04:08:14.123Z,1.30
2022-08-17T04:10:51.525Z,1.23
2022-08-17T04:13:28.779Z,1.10
2022-08-17T04:16:08.887Z,1.15
2022-08-17T04:18:45.251Z,1.10
2022-08-17T04:21:24.688Z,1.15
2022-08-17T04:24:02.664Z,1.13
2022-08-17T04:26:52.645Z,1.13
2022-08-17T04:29:55.144Z,1.00
2022-08-17T04:33:03.435Z,1.08
2022-08-17T04:35:30.459Z,1.20
2022-08-17T04:38:11.170Z,1.20
2022-08-17T04:41:05.931Z,1.13
2022-08-17T04:43:43.854Z,1.00
2022-08-17T04:46:23.882Z,1.20
2022-08-17T04:49:01.413Z,1.00
2022-08-17T04:51:45.523Z,1.00
2022-08-17T04:54:32.556Z,1.00
2022-08-17T04:57:11.673Z,1.40
2022-08-17T04:59:47.584Z,1.10
2022-08-17T05:02:25.339Z,1.17
2022-08-17T05:05:04.097Z,1.15
2022-08-17T05:07:40.573Z,1.30
2022-08-17T05:10:19.395Z,1.00
2022-08-17T05:13:03.601Z,0.90
2022-08-17T05:15:44.910Z,1.20
2022-08-17T05:18:24.525Z,1.00
2022-08-17T05:21:02.357Z,1.10
2022-08-17T05:23:42.765Z,1.17
2022-08-17T05:26:26.905Z,1.27
2022-08-17T05:29:04.417Z,1.10
2022-08-17T05:31:43.882Z,1.20
2022-08-17T05:34:22.088Z,1.27
2022-08-17T05:36:59.909Z,0.98
2022-08-17T05:39:38.912Z,1.00
2022-08-17T05:42:16.507Z,1.15
2022-08-17T05:44:53.832Z,1.10
2022-08-17T05:47:32.180Z,1.10
2022-08-17T05:50:11.893Z,1.10
2022-08-17T05:53:00.855Z,1.08
2022-08-17T05:55:46.353Z,1.08
2022-08-17T05:58:29.292Z,1.00
2022-08-17T06:01:13.735Z,1.10
2022-08-17T06:04:00.583Z,1.00
2022-08-17T06:06:46.498Z,1.00
2022-08-17T06:09:34.103Z,1.20
2022-08-17T06:12:29.788Z,1.10
2022-08-17T06:15:28.079Z,1.20
2022-08-17T06:18:18.593Z,1.00
2022-08-17T06:20:59.955Z,1.30
2022-08-17T06:23:39.686Z,1.15
2022-08-17T06:26:21.937Z,1.23
2022-08-17T06:29:04.841Z,1.17
2022-08-17T06:31:47.987Z,1.17
2022-08-17T06:34:24.736Z,1.10
2022-08-17T06:37:11.018Z,1.20
2022-08-17T06:39:58.621Z,1.00
2022-08-17T06:43:05.150Z,1.33
2022-08-17T06:45:45.597Z,1.17
2022-08-17T06:48:28.219Z,1.10
2022-08-17T06:51:06.674Z,1.23
2022-08-17T06:53:48.525Z,1.00
2022-08-17T06:56:53.902Z,1.10
2022-08-17T06:59:54.918Z,1.10
2022-08-17T07:02:52.351Z,1.30
2022-08-17T07:05:38.675Z,1.20
2022-08-17T07:08:29.333Z,1.13
2022-08-17T07:11:10.739Z,1.17
2022-08-17T07:13:52.793Z,1.10
2022-08-17T07:16:34.686Z,1.30
2022-08-17T07:19:12.865Z,1.50
2022-08-17T07:22:01.796Z,1.10
2022-08-17T07:24:46.306Z,1.30
2022-08-17T07:27:24.911Z,1.50
2022-08-17T07:30:10.573Z,1.70
2022-08-17T07:32:50.709Z,1.40
2022-08-17T07:35:44.269Z,1.70
2022-08-17T07:38:27.140Z,1.55
2022-08-17T07:41:10.601Z,1.70
2022-08-17T07:43:54.510Z,1.65
2022-08-17T07:46:50.582Z,1.50
2022-08-17T07:49:37.642Z,1.40
2022-08-17T07:52:48.114Z,1.40
2022-08-17T07:55:31.951Z,1.30
2022-08-17T07:58:08.420Z,2.00
2022-08-17T08:00:44.745Z,1.90
2022-08-17T08:03:33.529Z,1.55
2022-08-17T08:06:25.296Z,1.60
2022-08-17T08:09:03.146Z,1.83
2022-08-17T08:11:44.426Z,2.00
2022-08-17T08:14:36.351Z,1.88
2022-08-17T08:17:14.841Z,1.83
2022-08-17T08:19:51.958Z,2.05
2022-08-17T08:22:33.482Z,1.88
2022-08-17T08:25:23.677Z,1.90
2022-08-17T08:28:25.362Z,2.33
2022-08-17T08:31:08.403Z,2.70
2022-08-17T08:33:56.620Z,3.30
2022-08-17T08:37:13.105Z,3.38
2022-08-17T08:39:52.801Z,4.53
2022-08-17T08:42:34.686Z,2.80
2022-08-17T08:45:21.288Z,2.70
2022-08-17T08:48:52.790Z,2.38
2022-08-17T08:51:19.040Z,2.75
2022-08-17T08:54:05.744Z,2.83
2022-08-17T08:57:11.943Z,2.83
2022-08-17T08:59:57.701Z,2.50
2022-08-17T09:03:07.920Z,2.47
2022-08-17T09:06:37.622Z,2.58
2022-08-17T09:09:22.580Z,2.92
2022-08-17T09:12:09.338Z,2.53
2022-08-17T09:14:57.216Z,2.80
2022-08-17T09:18:08.612Z,2.55
2022-08-17T09:20:54.494Z,2.83
2022-08-17T09:23:38.739Z,2.92
2022-08-17T09:26:26.265Z,3.13
2022-08-17T09:29:07.141Z,3.40
2022-08-17T09:31:56.778Z,3.10
2022-08-17T09:34:43.587Z,3.00
2022-08-17T09:37:27.511Z,3.03
2022-08-17T09:40:16.908Z,2.50
2022-08-17T09:42:57.410Z,3.08
2022-08-17T09:45:40.374Z,2.63
2022-08-17T09:48:24.119Z,2.60
2022-08-17T09:51:08.725Z,2.55
2022-08-17T09:53:45.322Z,2.78
2022-08-17T09:56:46.005Z,2.50
2022-08-17T09:59:38.770Z,2.45
2022-08-17T10:02:34.022Z,2.20
2022-08-17T10:05:17.859Z,2.65
2022-08-17T10:08:10.338Z,4.28
2022-08-17T10:10:56.219Z,3.88
2022-08-17T10:13:52.763Z,3.50
2022-08-17T10:16:41.270Z,3.95
2022-08-17T10:19:24.228Z,3.80
2022-08-17T10:22:35.064Z,4.30
2022-08-17T10:25:53.558Z,3.80
2022-08-17T10:28:34.429Z,4.20
2022-08-17T10:34:41.210Z,4.43
2022-08-17T10:37:42.815Z,4.45
2022-08-17T10:40:36.434Z,4.22
2022-08-17T10:43:31.020Z,3.80
2022-08-17T10:46:31.352Z,3.72
2022-08-17T10:49:31.391Z,3.58
2022-08-17T10:52:09.171Z,3.53
2022-08-17T10:54:56.723Z,3.28
2022-08-17T10:57:47.827Z,3.47
2022-08-17T11:01:14.549Z,3.58
2022-08-17T11:03:59.276Z,3.33
2022-08-17T11:06:45.492Z,3.60
2022-08-17T11:09:43.262Z,3.75
2022-08-17T11:12:39.723Z,3.70
2022-08-17T11:15:30.887Z,4.80
2022-08-17T11:18:33.806Z,4.22
2022-08-17T11:21:34.528Z,3.88
2022-08-17T11:24:20.890Z,4.30
2022-08-17T11:27:24.563Z,4.28
2022-08-17T11:30:03.983Z,3.95
2022-08-17T11:32:53.013Z,3.92
2022-08-17T11:35:43.867Z,3.80
2022-08-17T11:38:28.463Z,4.10
2022-08-17T11:41:24.050Z,3.65
2022-08-17T11:44:22.631Z,3.80
2022-08-17T11:47:29.599Z,4.00
2022-08-17T11:50:54.293Z,4.05
2022-08-17T11:58:03.496Z,4.40
2022-08-17T12:01:01.987Z,4.05
2022-08-17T12:03:55.620Z,3.85
2022-08-17T12:06:47.223Z,3.80
2022-08-17T12:09:26.730Z,3.80
2022-08-17T12:12:12.595Z,4.47
2022-08-17T12:15:10.049Z,3.78
2022-08-17T12:17:50.182Z,3.78
2022-08-17T12:20:35.998Z,4.32
2022-08-17T12:23:25.199Z,4.55
2022-08-17T12:26:06.759Z,4.40
2022-08-17T12:28:49.046Z,4.15
2022-08-17T12:31:30.294Z,3.83
2022-08-17T12:34:07.319Z,3.83
2022-08-17T12:36:46.665Z,4.10
2022-08-17T12:39:28.738Z,3.88
2022-08-17T12:42:25.603Z,4.07
2022-08-17T12:45:02.780Z,3.67
2022-08-17T12:47:42.285Z,3.90
2022-08-17T12:50:29.207Z,3.80
2022-08-17T12:53:08.076Z,3.97
2022-08-17T12:55:47.087Z,4.03
2022-08-17T12:58:26.595Z,3.72
2022-08-17T13:01:06.635Z,3.72
2022-08-17T13:03:50.990Z,4.20
2022-08-17T13:06:34.070Z,4.15
2022-08-17T13:09:17.641Z,3.67
2022-08-17T13:12:01.448Z,4.22
2022-08-17T13:14:38.804Z,4.20
2022-08-17T13:17:18.047Z,4.00
2022-08-17T13:19:57.667Z,4.00
2022-08-17T13:22:36.368Z,4.07
2022-08-17T13:25:18.095Z,3.65
2022-08-17T13:28:00.254Z,3.92
2022-08-17T13:30:37.300Z,3.83
2022-08-17T13:33:44.654Z,4.25
2022-08-17T13:36:31.719Z,4.07
2022-08-17T13:39:21.058Z,4.25
2022-08-17T13:42:02.188Z,4.40
2022-08-17T13:44:50.422Z,4.00
2022-08-17T13:47:27.637Z,4.85
2022-08-17T13:50:05.044Z,4.38
2022-08-17T13:52:50.053Z,4.03
2022-08-17T13:55:28.611Z,4.30
2022-08-17T13:58:07.422Z,4.10
2022-08-17T14:00:46.450Z,4.40
2022-08-17T14:03:28.472Z,4.47
2022-08-17T14:06:13.252Z,4.35
2022-08-17T14:09:10.528Z,4.22
2022-08-17T14:11:47.045Z,4.50
2022-08-17T14:14:24.793Z,4.50
2022-08-17T14:17:05.763Z,4.40
2022-08-17T14:19:46.083Z,4.20
2022-08-17T14:22:30.990Z,4.20
2022-08-17T14:25:10.704Z,4.47
2022-08-17T14:27:53.516Z,4.60
2022-08-17T14:30:34.339Z,4.60
2022-08-17T14:33:14.549Z,3.95
2022-08-17T14:35:53.190Z,3.90
2022-08-17T14:38:30.383Z,4.10
2022-08-17T14:41:06.807Z,4.20
2022-08-17T14:43:43.983Z,4.13
2022-08-17T14:46:20.837Z,3.92
2022-08-17T14:48:59.561Z,3.80
2022-08-17T14:51:37.821Z,4.10
2022-08-17T14:54:34.094Z,3.92
2022-08-17T14:57:32.981Z,4.18
2022-08-17T15:00:07.572Z,4.18
2022-08-17T15:02:55.299Z,4.20
2022-08-17T15:05:36.248Z,4.32
2022-08-17T15:08:13.789Z,4.05
2022-08-17T15:10:54.223Z,4.07
2022-08-17T15:13:32.183Z,3.75
2022-08-17T15:16:09.031Z,3.60
2022-08-17T15:18:47.054Z,3.90
2022-08-17T15:21:24.955Z,4.00
2022-08-17T15:24:02.241Z,4.10
2022-08-17T15:26:41.110Z,3.75
2022-08-17T15:29:19.700Z,3.92
2022-08-17T15:32:00.615Z,3.95
2022-08-17T15:34:39.550Z,4.05
2022-08-17T15:37:18.087Z,3.83
2022-08-17T15:40:02.437Z,3.70
2022-08-17T15:42:48.075Z,3.83
2022-08-17T15:45:32.702Z,4.47
2022-08-17T15:48:09.593Z,3.80
2022-08-17T15:50:47.664Z,3.90
2022-08-17T15:53:27.952Z,3.58
2022-08-17T15:56:05.481Z,3.70
2022-08-17T15:58:44.163Z,4.13
2022-08-17T16:03:01.249Z,3.70
2022-08-17T16:04:26.488Z,3.60
2022-08-17T16:07:07.460Z,3.90
2022-08-17T16:09:45.802Z,3.67
2022-08-17T16:12:23.493Z,3.92
2022-08-17T16:15:02.800Z,4.20
2022-08-17T16:17:42.769Z,4.10
2022-08-17T16:20:23.229Z,3.97
2022-08-17T16:23:01.131Z,4.05
2022-08-17T16:25:52.815Z,3.90
2022-08-17T16:28:35.676Z,4.07
2022-08-17T16:31:11.974Z,4.07
2022-08-17T16:33:58.493Z,4.15
2022-08-17T16:36:55.198Z,4.78
2022-08-17T16:39:37.839Z,4.30
2022-08-17T16:42:28.521Z,4.55
2022-08-17T16:45:11.550Z,4.03
2022-08-17T16:47:48.921Z,4.40
2022-08-17T16:50:26.931Z,4.50
2022-08-17T16:53:12.176Z,4.28
2022-08-17T16:55:49.004Z,4.65
2022-08-17T16:58:29.514Z,4.65
2022-08-17T17:01:05.538Z,4.80
2022-08-17T17:03:54.067Z,4.93
2022-08-17T17:06:45.455Z,4.40
2022-08-17T17:09:29.503Z,4.43
2022-08-17T17:12:09.512Z,4.10
2022-08-17T17:14:53.415Z,4.07
2022-08-17T17:17:34.696Z,4.05
2022-08-17T17:20:18.056Z,4.18
2022-08-17T17:22:58.995Z,4.10
2022-08-17T17:25:41.302Z,4.07
2022-08-17T17:28:27.932Z,3.90
2022-08-17T17:31:12.290Z,4.30
2022-08-17T17:33:54.176Z,4.05
2022-08-17T17:36:36.683Z,4.40
2022-08-17T17:39:18.378Z,4.10
2022-08-17T17:42:03.664Z,4.55
2022-08-17T17:44:43.942Z,4.20
2022-08-17T17:47:22.734Z,4.40
2022-08-17T17:49:59.405Z,4.00
2022-08-17T17:52:44.024Z,3.67
2022-08-17T17:55:39.763Z,4.10
2022-08-17T17:58:37.555Z,4.10
2022-08-17T18:01:30.031Z,4.40
2022-08-17T18:04:25.041Z,4.30
2022-08-17T18:07:19.091Z,4.22
2022-08-17T18:10:19.663Z,4.75
2022-08-17T18:13:19.766Z,4.97
2022-08-17T18:16:02.381Z,4.90
2022-08-17T18:18:46.196Z,5.05
2022-08-17T18:21:40.924Z,4.70
2022-08-17T18:24:17.946Z,4.95
2022-08-17T18:26:58.844Z,5.00
2022-08-17T18:29:48.742Z,4.90
2022-08-17T18:32:35.227Z,4.50
2022-08-17T18:35:58.845Z,4.57
2022-08-17T18:38:42.948Z,4.63
2022-08-17T18:41:29.385Z,4.30
2022-08-17T18:44:14.832Z,4.78
2022-08-17T18:46:51.593Z,4.43
2022-08-17T18:49:34.041Z,4.75
2022-08-17T18:52:19.312Z,4.35
2022-08-17T18:55:12.538Z,4.45
2022-08-17T18:57:51.081Z,4.55
2022-08-17T19:00:40.023Z,4.32
2022-08-17T19:03:29.599Z,4.65
2022-08-17T19:06:25.637Z,4.43
2022-08-17T19:09:05.425Z,4.07
2022-08-17T19:11:44.209Z,4.40
2022-08-17T19:14:21.367Z,4.65
2022-08-17T19:17:00.972Z,4.18
2022-08-17T19:19:42.055Z,4.18
2022-08-17T19:22:29.342Z,4.25
2022-08-17T19:25:17.052Z,4.30
2022-08-17T19:28:01.650Z,4.38
2022-08-17T19:30:40.814Z,4.60
2022-08-17T19:33:21.325Z,4.30
2022-08-17T19:36:06.027Z,4.10
2022-08-17T19:38:54.828Z,4.47
2022-08-17T19:41:43.114Z,3.78
2022-08-17T19:44:40.032Z,4.07
2022-08-17T19:47:50.954Z,3.83
2022-08-17T19:50:25.493Z,3.83
2022-08-17T19:53:09.046Z,3.88
2022-08-17T19:55:58.618Z,3.70
2022-08-17T19:58:51.922Z,3.88
2022-08-17T20:01:42.185Z,3.83
2022-08-17T20:04:24.506Z,3.55
2022-08-17T20:07:13.258Z,3.47
2022-08-17T20:09:56.033Z,3.58
2022-08-17T20:12:38.024Z,3.50
2022-08-17T20:15:17.118Z,3.40
2022-08-17T20:17:55.469Z,3.67
2022-08-17T20:20:46.759Z,4.25
2022-08-17T20:23:45.243Z,4.45
2022-08-17T20:26:29.006Z,4.05
2022-08-17T20:29:39.621Z,4.40
2022-08-17T20:32:29.232Z,4.25
2022-08-17T20:35:32.281Z,4.85
2022-08-17T20:38:12.532Z,4.55
2022-08-17T20:41:17.256Z,4.57
2022-08-17T20:44:08.164Z,4.30
2022-08-17T20:47:08.099Z,4.53
2022-08-17T20:49:57.539Z,4.25
2022-08-17T20:53:00.137Z,3.90
2022-08-17T20:55:58.015Z,4.00
2022-08-17T20:58:52.408Z,4.05
2022-08-17T21:01:42.729Z,3.70
2022-08-17T21:04:50.245Z,3.90
2022-08-17T21:07:32.984Z,3.92
2022-08-17T21:10:24.952Z,3.75
2022-08-17T21:13:09.795Z,3.90
2022-08-17T21:15:54.230Z,3.83
2022-08-17T21:18:40.238Z,3.70
2022-08-17T21:21:31.030Z,4.25
2022-08-17T21:24:22.882Z,3.63
2022-08-17T21:27:10.057Z,3.60
2022-08-17T21:30:18.410Z,3.90
2022-08-17T21:33:28.901Z,3.88
2022-08-17T21:36:31.105Z,3.92
2022-08-17T21:39:21.438Z,3.95
2022-08-17T21:42:02.792Z,3.83
2022-08-17T21:44:44.357Z,4.10
2022-08-17T21:47:26.231Z,3.60
2022-08-17T21:50:21.806Z,3.90
2022-08-17T21:53:00.911Z,3.70
2022-08-17T21:55:40.655Z,3.80
2022-08-17T21:58:36.530Z,3.83
2022-08-17T22:01:24.053Z,3.50
2022-08-17T22:04:05.710Z,3.63
2022-08-17T22:06:56.678Z,4.03
2022-08-17T22:09:36.597Z,3.67
2022-08-17T22:12:19.198Z,4.20
2022-08-17T22:15:11.422Z,4.05
2022-08-17T22:17:50.890Z,4.07
2022-08-17T22:20:29.640Z,3.45
2022-08-17T22:23:36.312Z,3.53
2022-08-17T22:26:14.987Z,3.30
2022-08-17T22:28:54.240Z,2.88
2022-08-17T22:31:34.576Z,3.00
2022-08-17T22:34:20.034Z,2.80
2022-08-17T22:37:33.644Z,3.00
2022-08-17T22:40:10.882Z,2.60
2022-08-17T22:42:50.890Z,2.55
2022-08-17T22:45:28.345Z,2.70
2022-08-17T22:48:07.546Z,2.67
2022-08-17T22:50:43.310Z,2.50
2022-08-17T22:53:39.730Z,2.72
2022-08-17T22:56:38.673Z,2.50
2022-08-17T22:59:26.828Z,2.65
2022-08-17T23:02:25.286Z,2.35
2022-08-17T23:05:25.609Z,2.60
2022-08-17T23:08:03.007Z,2.85
2022-08-17T23:10:39.681Z,2.70
2022-08-17T23:13:18.630Z,2.83
2022-08-17T23:15:56.119Z,3.03
2022-08-17T23:18:33.193Z,3.20
2022-08-17T23:21:16.065Z,3.50
2022-08-17T23:24:04.861Z,3.17
2022-08-17T23:26:42.701Z,3.00
2022-08-17T23:29:21.745Z,3.38
2022-08-17T23:31:59.507Z,3.33
2022-08-17T23:34:37.554Z,3.50
2022-08-17T23:37:16.818Z,3.20
2022-08-17T23:39:52.989Z,3.40
2022-08-17T23:42:31.109Z,3.40
2022-08-17T23:45:07.391Z,3.30
2022-08-17T23:47:45.835Z,3.53
2022-08-17T23:50:22.404Z,3.30
2022-08-17T23:53:01.021Z,3.40
2022-08-17T23:55:37.281Z,3.60
2022-08-17T23:58:14.062Z,3.40
